Time;durP1;ratioP1;P1;durP2;ratioP2;P2;SDS_P1;SDS_P2;PMS_P1;PMS_P2;Temp;Humidity;BMP_temperature;BMP_pressure;BME280_temperature;BME280_humidity;BME280_pressure;Samples;Min_cycle;Max_cycle;Signal;HPM_P1;HPM_P2
2022/08/13 00:01:41;;;;;;;8.50;6.20;;;26.70;53.80;;;;;;5094987;28;20386;-76
2022/08/13 00:04:13;;;;;;;7.75;5.95;;;26.90;53.50;;;;;;5076572;28;20020;-76
2022/08/13 00:09:10;;;;;;;8.50;6.07;;;26.90;53.40;;;;;;5094741;28;20719;-76
2022/08/13 00:14:24;;;;;;;7.13;5.70;;;25.90;55.10;;;;;;5094954;28;20066;-75
2022/08/13 00:16:52;;;;;;;7.32;5.75;;;25.80;55.10;;;;;;5094854;28;20050;-75
2022/08/13 00:19:19;;;;;;;6.28;5.68;;;25.90;54.30;;;;;;5094665;28;20024;-74
2022/08/13 00:21:47;;;;;;;7.75;5.70;;;26.00;54.70;;;;;;5096553;28;20039;-75
2022/08/13 00:24:13;;;;;;;9.73;5.53;;;26.10;54.10;;;;;;5099637;28;20103;-75
2022/08/13 00:26:39;;;;;;;7.57;5.85;;;26.10;54.20;;;;;;5094647;28;20527;-75
2022/08/13 00:29:05;;;;;;;7.00;5.28;;;26.00;54.20;;;;;;5094438;28;20024;-76
2022/08/13 00:31:31;;;;;;;7.00;5.43;;;26.10;53.90;;;;;;5094522;28;20107;-75
2022/08/13 00:33:58;;;;;;;7.53;5.60;;;25.70;54.90;;;;;;5097041;28;20107;-75
2022/08/13 00:36:26;;;;;;;6.90;5.70;;;25.60;55.70;;;;;;5094001;28;20473;-76
2022/08/13 00:38:53;;;;;;;7.70;5.80;;;25.80;55.50;;;;;;5094746;28;20020;-76
2022/08/13 00:41:37;;;;;;;8.07;5.70;;;26.10;54.80;;;;;;5094565;28;20065;-76
2022/08/13 00:44:08;;;;;;;7.50;5.90;;;26.40;54.10;;;;;;5096304;28;20063;-76
2022/08/13 00:46:36;;;;;;;9.55;6.60;;;26.60;53.90;;;;;;5094586;28;20043;-77
2022/08/13 00:49:03;;;;;;;8.93;6.05;;;26.70;54.40;;;;;;5094278;28;20107;-76
2022/08/13 00:51:31;;;;;;;9.35;6.95;;;26.70;54.10;;;;;;5075984;28;20371;-76
2022/08/13 00:53:58;;;;;;;7.68;6.50;;;26.50;54.30;;;;;;5093969;28;20040;-77
2022/08/13 00:56:25;;;;;;;7.38;6.00;;;26.40;54.40;;;;;;5111268;28;20035;-77
2022/08/13 00:58:52;;;;;;;7.97;6.53;;;26.00;55.20;;;;;;5096065;28;20114;-76
2022/08/13 01:01:23;;;;;;;7.65;6.10;;;26.10;54.80;;;;;;5111294;28;20035;-75
2022/08/13 01:03:50;;;;;;;8.23;6.78;;;26.10;54.80;;;;;;5114246;28;20129;-76
2022/08/13 01:06:17;;;;;;;8.75;7.13;;;25.80;55.60;;;;;;5114326;28;20012;-77
2022/08/13 01:08:43;;;;;;;8.63;7.00;;;26.00;55.50;;;;;;5077548;28;20489;-77
2022/08/13 01:11:11;;;;;;;8.50;6.75;;;26.30;54.70;;;;;;5098004;28;20016;-77
2022/08/13 01:13:39;;;;;;;7.55;6.35;;;26.60;54.70;;;;;;5114229;28;20026;-77
2022/08/13 01:16:07;;;;;;;7.57;6.20;;;26.70;54.00;;;;;;5102788;28;20430;-77
2022/08/13 01:18:36;;;;;;;8.73;6.57;;;26.30;54.50;;;;;;5093531;28;20016;-77
2022/08/13 01:21:15;;;;;;;7.70;6.60;;;26.30;55.00;;;;;;5094276;28;20355;-76
2022/08/13 01:23:46;;;;;;;8.50;6.47;;;26.20;55.00;;;;;;5093518;28;20024;-76
2022/08/13 01:26:15;;;;;;;10.85;6.28;;;26.40;54.50;;;;;;5078057;28;20028;-77
2022/08/13 01:28:43;;;;;;;8.40;7.35;;;26.20;55.10;;;;;;5075403;28;20161;-77
2022/08/13 01:31:10;;;;;;;7.22;6.45;;;26.20;54.80;;;;;;5092894;28;20020;-75
2022/08/13 01:33:36;;;;;;;7.07;6.38;;;26.10;55.00;;;;;;5110935;28;20035;-76
2022/08/13 01:36:07;;;;;;;9.25;7.60;;;25.80;55.40;;;;;;5112910;28;20027;-77
2022/08/13 01:38:34;;;;;;;;;;;25.70;56.10;;;;;;5113977;28;20381;-76
2022/08/13 01:41:02;;;;;;;9.07;7.47;;;25.80;55.80;;;;;;5113827;28;20262;-76
2022/08/13 01:43:30;;;;;;;8.48;6.78;;;25.60;56.00;;;;;;5111226;28;20051;-77
2022/08/13 01:46:00;;;;;;;10.82;8.15;;;25.70;56.10;;;;;;5094846;28;20050;-76
2022/08/13 01:51:21;;;;;;;11.15;8.07;;;25.70;56.50;;;;;;5093171;28;20046;-76
2022/08/13 01:53:54;;;;;;;8.30;7.35;;;25.70;56.30;;;;;;5093061;28;20050;-76
2022/08/13 01:56:23;;;;;;;9.15;7.43;;;25.80;56.20;;;;;;5094914;28;20028;-76
2022/08/13 01:58:50;;;;;;;8.85;7.38;;;25.70;56.90;;;;;;5092453;28;20017;-76
2022/08/13 02:01:17;;;;;;;9.07;7.55;;;25.50;57.10;;;;;;5093389;28;20032;-76
2022/08/13 02:03:46;;;;;;;8.30;6.90;;;24.60;58.90;;;;;;5074818;28;20020;-76
2022/08/13 02:06:12;;;;;;;8.90;7.60;;;24.20;60.00;;;;;;5092830;28;20021;-76
2022/08/13 02:08:40;;;;;;;8.98;7.28;;;24.30;60.00;;;;;;5101477;28;20030;-76
2022/08/13 02:11:06;;;;;;;9.65;7.55;;;24.80;58.80;;;;;;5112655;28;20366;-77
2022/08/13 02:13:33;;;;;;;10.70;8.10;;;25.10;58.00;;;;;;5113287;28;20055;-77
2022/08/13 02:15:58;;;;;;;11.00;7.55;;;25.50;57.60;;;;;;5113107;28;20500;-77
2022/08/13 02:18:26;;;;;;;9.80;7.53;;;25.80;57.20;;;;;;5113257;28;20032;-76
2022/08/13 02:20:52;;;;;;;9.65;8.13;;;26.00;57.30;;;;;;5110828;28;20046;-77
2022/08/13 02:23:22;;;;;;;8.63;7.72;;;26.10;57.10;;;;;;5113318;28;20036;-76
2022/08/13 02:25:50;;;;;;;10.68;8.40;;;25.80;57.50;;;;;;5110788;28;20027;-77
2022/08/13 02:28:19;;;;;;;9.88;8.50;;;26.00;57.00;;;;;;5074729;28;20475;-77
2022/08/13 02:30:50;;;;;;;9.35;7.05;;;26.00;56.40;;;;;;5092708;28;20089;-76
2022/08/13 02:33:16;;;;;;;8.45;7.40;;;26.00;56.50;;;;;;5094627;28;20028;-76
2022/08/13 02:35:43;;;;;;;10.95;7.35;;;25.90;56.70;;;;;;5094513;28;20040;-76
2022/08/13 02:38:11;;;;;;;10.85;8.00;;;25.90;56.70;;;;;;5092401;28;20016;-77
2022/08/13 02:43:31;;;;;;;8.80;7.63;;;25.80;56.80;;;;;;5093058;28;20105;-76
2022/08/13 02:45:57;;;;;;;8.85;7.60;;;25.80;56.70;;;;;;5092125;28;20405;-76
2022/08/13 02:48:25;;;;;;;9.52;8.50;;;25.90;56.40;;;;;;5092099;28;20029;-77
2022/08/13 02:50:53;;;;;;;9.60;7.80;;;26.10;56.10;;;;;;5103900;28;20035;-77
2022/08/13 02:53:19;;;;;;;9.60;8.25;;;26.20;56.00;;;;;;5112553;28;20023;-76
2022/08/13 02:55:49;;;;;;;11.10;8.75;;;26.10;56.00;;;;;;5112917;28;20028;-76
2022/08/13 02:58:16;;;;;;;9.77;7.95;;;26.20;55.70;;;;;;5112772;28;20069;-76
2022/08/13 03:00:47;;;;;;;10.73;7.50;;;26.10;55.70;;;;;;5107886;28;20020;-76
2022/08/13 03:03:14;;;;;;;11.82;8.38;;;25.70;56.60;;;;;;5092640;28;20052;-77
2022/08/13 03:05:41;;;;;;;10.60;8.20;;;25.60;57.00;;;;;;5092485;28;20028;-77
2022/08/13 03:08:07;;;;;;;10.20;8.93;;;25.50;57.20;;;;;;5092186;28;20024;-77
2022/08/13 03:10:33;;;;;;;13.40;9.10;;;25.50;57.50;;;;;;5092493;28;20031;-76
2022/08/13 03:13:03;;;;;;;9.63;7.60;;;25.40;57.60;;;;;;5092449;28;20032;-77
2022/08/13 03:15:29;;;;;;;11.05;8.80;;;25.40;57.20;;;;;;5091748;28;20389;-76
2022/08/13 03:17:55;;;;;;;11.65;9.32;;;24.90;58.50;;;;;;5096732;28;20055;-76
2022/08/13 03:20:21;;;;;;;11.65;8.88;;;24.90;58.90;;;;;;5092376;28;20020;-76
2022/08/13 03:22:55;;;;;;;9.73;8.50;;;25.20;57.90;;;;;;5092617;28;20058;-76
2022/08/13 03:25:23;;;;;;;9.65;8.38;;;25.50;57.20;;;;;;5095894;28;20069;-76
2022/08/13 03:27:49;;;;;;;10.35;8.75;;;25.50;57.40;;;;;;5097443;28;20116;-77
2022/08/13 03:30:17;;;;;;;11.40;8.52;;;25.70;57.10;;;;;;5077456;28;20494;-76
2022/08/13 03:32:45;;;;;;;10.45;8.90;;;25.70;56.80;;;;;;5095953;28;20016;-77
2022/08/13 03:35:22;;;;;;;10.35;8.73;;;25.80;56.80;;;;;;5095616;28;20059;-77
2022/08/13 03:37:54;;;;;;;9.85;8.60;;;25.80;56.40;;;;;;5095408;28;20036;-75
2022/08/13 03:41:00;;;;;;;12.43;8.93;;;25.60;57.00;;;;;;5096402;28;20027;-76
2022/08/13 03:43:13;;;;;;;10.35;8.15;;;25.50;57.40;;;;;;5095521;28;20393;-76
2022/08/13 03:45:38;;;;;;;13.27;9.05;;;25.60;57.30;;;;;;5095494;28;20029;-76
2022/08/13 03:48:05;;;;;;;11.00;8.75;;;25.70;57.10;;;;;;5095370;28;20028;-77
2022/08/13 03:50:31;;;;;;;12.85;9.80;;;25.80;57.30;;;;;;5094928;28;20446;-76
2022/08/13 03:53:02;;;;;;;10.43;9.20;;;25.80;57.70;;;;;;5095358;28;20425;-76
2022/08/13 03:55:30;;;;;;;11.40;9.98;;;25.90;57.30;;;;;;5095029;28;20046;-77
2022/08/13 03:57:57;;;;;;;11.27;9.90;;;26.00;56.90;;;;;;5095227;28;20024;-76
2022/08/13 04:00:28;;;;;;;13.30;10.07;;;26.10;56.80;;;;;;5077154;28;20024;-76
2022/08/13 04:03:00;;;;;;;11.90;9.63;;;26.20;56.70;;;;;;5095553;28;20106;-77
2022/08/13 04:05:26;;;;;;;13.68;10.73;;;26.10;57.00;;;;;;5095080;28;20020;-76
2022/08/13 04:07:52;;;;;;;11.90;9.73;;;26.20;57.00;;;;;;5095092;28;20090;-76
2022/08/13 04:10:19;;;;;;;11.85;10.05;;;26.30;56.90;;;;;;5097429;28;20024;-77
2022/08/13 04:12:45;;;;;;;11.60;9.65;;;26.30;57.10;;;;;;5125339;27;20027;-77
2022/08/13 04:15:11;;;;;;;11.35;10.15;;;26.30;56.90;;;;;;5119865;27;20428;-76
2022/08/13 04:17:37;;;;;;;12.50;10.68;;;26.40;57.10;;;;;;5116645;27;20039;-76
2022/08/13 04:20:09;;;;;;;12.73;9.82;;;26.40;57.10;;;;;;5113706;28;20095;-75
2022/08/13 04:22:37;;;;;;;12.35;9.88;;;26.20;57.70;;;;;;5113068;28;20032;-75
2022/08/13 04:25:04;;;;;;;11.63;9.75;;;26.10;58.30;;;;;;5112685;28;20016;-75
2022/08/13 04:27:32;;;;;;;11.23;9.82;;;26.00;58.20;;;;;;5111422;28;20016;-76
2022/08/13 04:29:59;;;;;;;11.75;9.98;;;26.10;58.20;;;;;;5108479;28;20024;-75
2022/08/13 04:32:24;;;;;;;11.40;9.25;;;26.30;57.90;;;;;;5111644;28;20027;-76
2022/08/13 04:34:51;;;;;;;11.68;9.27;;;26.40;57.90;;;;;;5114306;28;20384;-76
2022/08/13 04:37:17;;;;;;;12.32;10.20;;;26.50;57.80;;;;;;5104966;27;20497;-75
2022/08/13 04:39:43;;;;;;;11.45;9.52;;;26.60;58.10;;;;;;5117443;27;20456;-75
2022/08/13 04:42:09;;;;;;;14.07;11.73;;;26.70;58.30;;;;;;5114413;28;20182;-76
2022/08/13 04:44:36;;;;;;;12.20;10.80;;;26.70;58.00;;;;;;5113156;28;20047;-76
2022/08/13 04:47:04;;;;;;;15.27;10.15;;;26.60;58.40;;;;;;5113675;28;20100;-74
2022/08/13 04:49:32;;;;;;;12.30;10.80;;;26.70;58.10;;;;;;5113236;28;20019;-75
2022/08/13 04:51:58;;;;;;;17.40;10.15;;;26.80;58.10;;;;;;5114559;28;20131;-76
2022/08/13 04:54:24;;;;;;;13.65;9.93;;;26.70;58.40;;;;;;5113706;28;20542;-77
2022/08/13 04:56:49;;;;;;;11.15;9.70;;;26.70;58.60;;;;;;5118391;27;20039;-76
2022/08/13 04:59:15;;;;;;;13.00;10.27;;;26.80;58.40;;;;;;5112833;28;20024;-75
2022/08/13 05:01:41;;;;;;;13.35;10.60;;;26.90;58.30;;;;;;5109591;28;20076;-74
2022/08/13 05:04:07;;;;;;;10.55;9.43;;;27.10;58.10;;;;;;5094630;28;20024;-74
2022/08/13 05:06:33;;;;;;;14.55;11.10;;;27.20;58.00;;;;;;5112515;28;20028;-75
2022/08/13 05:09:01;;;;;;;10.75;9.50;;;27.40;58.00;;;;;;5112604;28;20035;-76
2022/08/13 05:11:27;;;;;;;13.27;9.27;;;27.50;57.60;;;;;;5112640;28;20073;-77
2022/08/13 05:13:53;;;;;;;11.93;9.45;;;27.40;57.80;;;;;;5113321;28;20027;-77
2022/08/13 05:16:19;;;;;;;11.55;9.82;;;27.40;58.10;;;;;;5113864;28;20377;-76
2022/08/13 05:18:54;;;;;;;11.75;10.15;;;27.50;58.00;;;;;;5101545;28;20133;-75
2022/08/13 05:21:22;;;;;;;14.70;10.20;;;27.80;57.70;;;;;;5109430;28;20470;-76
2022/08/13 05:23:56;;;;;;;10.50;8.63;;;27.80;57.30;;;;;;5093413;28;20032;-74
2022/08/13 05:26:31;;;;;;;10.85;9.13;;;28.00;57.30;;;;;;5093545;28;20084;-76
2022/08/13 05:29:02;;;;;;;11.48;9.20;;;28.10;56.60;;;;;;5093541;28;20374;-75
2022/08/13 05:31:28;;;;;;;12.55;9.25;;;27.80;56.80;;;;;;5075756;28;20495;-76
2022/08/13 05:33:54;;;;;;;9.63;8.63;;;27.90;56.80;;;;;;5134586;27;20019;-76
2022/08/13 05:36:21;;;;;;;11.07;9.60;;;28.10;55.90;;;;;;5098009;27;20525;-76
2022/08/13 05:38:48;;;;;;;10.02;8.50;;;28.50;56.20;;;;;;5092574;28;20331;-76
2022/08/13 05:41:14;;;;;;;11.02;8.93;;;28.80;56.00;;;;;;5094083;28;20020;-74
2022/08/13 05:43:40;;;;;;;10.65;9.43;;;28.90;55.50;;;;;;5113446;28;20068;-74
2022/08/13 05:46:10;;;;;;;9.82;8.40;;;28.90;55.80;;;;;;5112680;28;20110;-75
2022/08/13 05:48:56;;;;;;;9.60;8.60;;;28.80;54.40;;;;;;5113620;28;20032;-75
2022/08/13 05:51:28;;;;;;;11.57;8.57;;;28.60;54.00;;;;;;5113502;28;20746;-75
2022/08/13 05:53:57;;;;;;;11.90;9.07;;;28.00;55.40;;;;;;5098295;28;20089;-76
2022/08/13 05:56:24;;;;;;;10.05;8.15;;;28.10;55.50;;;;;;5092871;28;20085;-76
2022/08/13 05:58:51;;;;;;;10.68;8.30;;;28.70;55.90;;;;;;5096291;28;20122;-76
2022/08/13 06:04:10;;;;;;;11.90;8.57;;;29.30;54.30;;;;;;5107035;28;20427;-75
2022/08/13 06:06:36;;;;;;;10.65;8.50;;;28.90;54.00;;;;;;5092790;28;20022;-76
2022/08/13 06:09:04;;;;;;;11.30;9.15;;;29.30;54.00;;;;;;5093450;28;20023;-76
2022/08/13 06:11:30;;;;;;;10.07;8.07;;;29.60;53.70;;;;;;5092848;28;20478;-76
2022/08/13 06:13:56;;;;;;;9.90;7.80;;;29.90;52.90;;;;;;5092823;28;20027;-76
2022/08/13 06:16:28;;;;;;;9.65;7.90;;;29.60;52.60;;;;;;5100425;28;20036;-76
2022/08/13 06:18:57;;;;;;;12.05;8.38;;;29.50;53.50;;;;;;5113243;28;20024;-76
2022/08/13 06:21:24;;;;;;;9.23;7.85;;;29.80;53.50;;;;;;5094919;28;20027;-76
2022/08/13 06:23:52;;;;;;;9.52;7.78;;;30.10;53.10;;;;;;5112725;28;20059;-77
2022/08/13 06:26:20;;;;;;;8.55;7.50;;;30.10;52.10;;;;;;5112577;28;20030;-77
2022/08/13 06:28:51;;;;;;;10.35;8.68;;;28.80;53.40;;;;;;5111768;28;20110;-76
2022/08/13 06:31:25;;;;;;;8.93;7.57;;;28.00;55.30;;;;;;5112402;28;20035;-78
2022/08/13 06:33:55;;;;;;;8.82;7.90;;;28.20;55.50;;;;;;5097235;28;20058;-76
2022/08/13 06:36:25;;;;;;;10.52;7.88;;;28.60;54.20;;;;;;5094995;28;20038;-76
2022/08/13 06:38:53;;;;;;;9.25;7.72;;;28.70;55.20;;;;;;5110215;28;20023;-76
2022/08/13 06:41:21;;;;;;;9.43;7.88;;;29.20;54.30;;;;;;5104306;28;20028;-76
2022/08/13 06:43:51;;;;;;;9.52;7.93;;;29.70;53.30;;;;;;5094687;28;20039;-78
2022/08/13 06:46:22;;;;;;;8.87;7.83;;;30.10;53.20;;;;;;5078339;28;20030;-75
2022/08/13 06:48:49;;;;;;;9.95;8.13;;;30.10;52.80;;;;;;5112634;28;20032;-76
2022/08/13 06:51:15;;;;;;;9.02;8.00;;;29.90;52.70;;;;;;5110263;28;20055;-75
2022/08/13 06:53:43;;;;;;;8.95;7.32;;;30.00;53.20;;;;;;5092385;28;20040;-80
2022/08/13 06:56:18;;;;;;;8.18;7.10;;;29.80;52.80;;;;;;5092446;28;20028;-77
2022/08/13 06:58:46;;;;;;;8.88;7.55;;;29.30;54.20;;;;;;5097660;28;20378;-76
2022/08/13 07:01:17;;;;;;;9.07;7.30;;;29.70;53.30;;;;;;5098977;28;20387;-75
2022/08/13 07:03:44;;;;;;;8.55;7.60;;;30.00;52.80;;;;;;5107617;28;20027;-81
2022/08/13 07:06:24;;;;;;;8.23;7.32;;;30.30;52.80;;;;;;5110665;28;20015;-74
2022/08/13 07:08:52;;;;;;;8.98;7.47;;;30.60;52.00;;;;;;5114110;28;20031;-74
2022/08/13 07:11:24;;;;;;;9.05;7.20;;;30.70;51.80;;;;;;5112992;28;20436;-74
2022/08/13 07:13:56;;;;;;;8.32;7.45;;;31.00;52.10;;;;;;5116420;28;20126;-80
2022/08/13 07:16:25;;;;;;;8.52;7.43;;;30.90;51.50;;;;;;4399024;28;10000724;-82
2022/08/13 07:18:51;;;;;;;8.80;7.10;;;30.70;52.00;;;;;;5113962;28;20020;-75
2022/08/13 07:21:27;;;;;;;7.97;6.85;;;30.60;52.50;;;;;;5105774;28;20023;-74
2022/08/13 07:24:00;;;;;;;10.18;7.43;;;31.00;52.10;;;;;;5092528;28;20150;-73
2022/08/13 07:26:29;;;;;;;8.85;6.97;;;31.20;51.40;;;;;;5091652;28;20020;-72
2022/08/13 07:28:55;;;;;;;8.45;7.35;;;31.20;51.50;;;;;;5095617;28;20084;-76
2022/08/13 07:31:27;;;;;;;9.38;6.90;;;31.30;51.80;;;;;;5094998;28;20011;-73
2022/08/13 07:33:53;;;;;;;8.10;6.63;;;31.50;51.50;;;;;;5100185;27;20032;-73
2022/08/13 07:36:24;;;;;;;8.45;6.95;;;31.70;51.10;;;;;;5133458;27;20610;-74
2022/08/13 07:38:50;;;;;;;;;;;31.70;50.70;;;;;;5093559;27;20550;-74
2022/08/13 07:41:16;;;;;;;10.85;7.28;;;31.50;51.40;;;;;;5107514;28;19908;-73
2022/08/13 07:43:43;;;;;;;9.02;7.25;;;31.60;51.00;;;;;;5098132;28;20027;-75
2022/08/13 07:46:12;;;;;;;10.07;7.10;;;32.00;50.70;;;;;;5102591;28;20038;-74
2022/08/13 07:48:41;;;;;;;7.70;6.90;;;32.30;50.60;;;;;;5089778;28;20490;-74
2022/08/13 07:51:18;;;;;;;8.35;6.88;;;32.40;50.20;;;;;;5110125;28;20034;-73
2022/08/13 07:53:52;;;;;;;8.13;6.97;;;32.50;50.60;;;;;;5098176;28;20040;-74
2022/08/13 07:56:21;;;;;;;8.45;6.53;;;32.60;49.80;;;;;;5092027;28;20047;-76
2022/08/13 07:58:47;;;;;;;7.72;6.93;;;32.60;49.90;;;;;;5119586;27;20117;-73
2022/08/13 08:01:13;;;;;;;8.27;6.35;;;32.60;49.20;;;;;;5123963;27;20091;-77
2022/08/13 08:03:42;;;;;;;8.20;6.82;;;32.80;49.70;;;;;;5097041;28;20027;-76
2022/08/13 08:06:10;;;;;;;7.85;7.03;;;33.10;49.20;;;;;;5091354;28;20032;-76
2022/08/13 08:08:42;;;;;;;7.25;6.45;;;33.50;48.90;;;;;;5104132;28;20377;-77
2022/08/13 08:13:59;;;;;;;7.88;6.72;;;33.30;48.10;;;;;;5110063;28;20074;-76
2022/08/13 08:16:30;;;;;;;7.85;6.50;;;33.20;48.90;;;;;;5119526;27;20482;-76
2022/08/13 08:18:59;;;;;;;7.15;6.25;;;33.10;48.90;;;;;;5132048;27;20047;-76
2022/08/13 08:21:32;;;;;;;7.07;5.88;;;33.00;47.90;;;;;;5103909;27;20044;-75
2022/08/13 08:24:03;;;;;;;9.23;6.25;;;33.10;46.90;;;;;;5110139;28;20046;-75
2022/08/13 08:26:41;;;;;;;9.82;6.30;;;33.20;47.70;;;;;;5099370;28;20032;-76
2022/08/13 08:29:10;;;;;;;8.18;6.85;;;33.40;47.30;;;;;;5113206;28;20427;-77
2022/08/13 08:31:40;;;;;;;7.53;5.80;;;33.50;48.40;;;;;;5112209;28;20027;-76
2022/08/13 08:34:07;;;;;;;6.93;6.22;;;33.30;47.80;;;;;;5111220;28;20098;-75
2022/08/13 08:36:37;;;;;;;7.30;5.95;;;33.50;47.60;;;;;;5110468;28;20023;-75
2022/08/13 08:44:40;;;;;;;7.55;6.20;;;33.90;46.90;;;;;;5110003;28;20078;-75
2022/08/13 08:47:07;;;;;;;6.75;5.90;;;33.80;46.60;;;;;;5109671;28;20020;-76
2022/08/13 08:49:34;;;;;;;9.60;5.90;;;33.70;47.00;;;;;;5110894;28;20019;-74
2022/08/13 08:52:01;;;;;;;7.85;5.90;;;33.80;47.00;;;;;;5110905;28;20030;-74
2022/08/13 08:54:29;;;;;;;7.57;5.90;;;33.90;46.10;;;;;;5109720;28;20039;-74
2022/08/13 08:56:56;;;;;;;6.70;5.88;;;34.30;45.70;;;;;;5110422;28;20116;-76
2022/08/13 08:59:23;;;;;;;6.88;5.70;;;34.70;45.00;;;;;;5101472;28;20028;-77
2022/08/13 09:01:55;;;;;;;7.20;5.78;;;35.00;45.60;;;;;;5102357;28;20024;-76
2022/08/13 09:04:25;;;;;;;8.18;5.97;;;34.40;44.90;;;;;;5111276;28;20463;-78
2022/08/13 09:06:58;;;;;;;6.60;5.60;;;33.90;46.20;;;;;;5111731;28;20039;-78
2022/08/13 09:09:25;;;;;;;7.15;5.90;;;33.60;46.10;;;;;;5107958;28;20034;-78
2022/08/13 09:11:55;;;;;;;7.78;5.95;;;33.60;46.90;;;;;;5112048;28;20065;-74
2022/08/13 09:14:31;;;;;;;9.63;6.18;;;33.90;47.50;;;;;;5098453;28;20016;-75
2022/08/13 09:17:00;;;;;;;12.60;5.95;;;33.70;45.90;;;;;;5104598;27;20070;-75
2022/08/13 09:19:27;;;;;;;7.25;6.30;;;33.20;46.80;;;;;;5131449;27;20101;-76
2022/08/13 09:21:53;;;;;;;9.57;6.13;;;33.50;47.00;;;;;;5100646;27;20063;-76
2022/08/13 09:24:21;;;;;;;7.65;5.40;;;34.00;46.40;;;;;;5107675;27;20062;-76
2022/08/13 09:26:48;;;;;;;8.68;5.65;;;34.60;45.20;;;;;;5088173;28;20039;-76
2022/08/13 09:29:18;;;;;;;7.68;5.65;;;35.20;45.10;;;;;;5092372;28;20443;-76
2022/08/13 09:31:47;;;;;;;6.80;5.53;;;35.50;45.80;;;;;;5106286;28;20027;-76
2022/08/13 09:34:14;;;;;;;6.90;5.80;;;35.70;44.50;;;;;;5090229;28;20154;-75
2022/08/13 09:36:40;;;;;;;13.82;5.63;;;35.30;45.00;;;;;;5100583;28;20538;-76
2022/08/13 09:39:07;;;;;;;7.20;5.68;;;35.10;45.10;;;;;;5092350;27;20084;-76
2022/08/13 09:41:42;;;;;;;7.43;5.30;;;35.00;44.60;;;;;;5084586;28;20123;-76
2022/08/13 09:44:08;;;;;;;7.78;5.47;;;35.10;45.50;;;;;;5090821;28;20027;-77
2022/08/13 09:46:35;;;;;;;7.15;5.32;;;35.20;45.10;;;;;;5107420;28;20055;-75
2022/08/13 09:49:03;;;;;;;8.50;5.50;;;35.40;44.90;;;;;;5107456;28;20032;-76
2022/08/13 09:51:32;;;;;;;7.85;5.18;;;35.60;44.00;;;;;;5105327;28;20027;-76
2022/08/13 09:53:58;;;;;;;6.30;4.97;;;35.80;44.50;;;;;;5101444;27;20035;-76
2022/08/13 09:56:24;;;;;;;7.80;5.25;;;35.20;43.90;;;;;;5089339;28;20084;-77
2022/08/13 09:58:50;;;;;;;6.40;5.00;;;34.80;45.30;;;;;;5076825;28;20109;-76
2022/08/13 10:01:20;;;;;;;7.60;5.10;;;35.10;45.60;;;;;;4729877;28;9999999;-75
2022/08/13 10:03:48;;;;;;;6.25;4.38;;;34.80;44.10;;;;;;5087730;28;20024;-82
2022/08/13 10:06:18;;;;;;;7.68;5.20;;;34.20;43.80;;;;;;5071978;28;20036;-79
2022/08/13 10:08:48;;;;;;;5.93;4.80;;;33.70;45.90;;;;;;5083684;28;20032;-77
2022/08/13 10:11:15;;;;;;;5.60;4.60;;;34.30;45.20;;;;;;5082632;28;20081;-81
2022/08/13 10:13:41;;;;;;;6.32;5.05;;;34.90;44.30;;;;;;5067918;28;20082;-77
2022/08/13 10:16:07;;;;;;;7.38;4.63;;;35.20;44.30;;;;;;5069729;28;20792;-76
2022/08/13 10:18:33;;;;;;;5.55;4.95;;;35.30;44.00;;;;;;5069839;28;20459;-77
2022/08/13 10:20:59;;;;;;;6.03;4.80;;;35.20;44.10;;;;;;5072040;28;20027;-76
2022/08/13 10:23:24;;;;;;;6.43;4.80;;;35.40;44.50;;;;;;5074575;28;20151;-77
2022/08/13 10:25:52;;;;;;;5.88;5.20;;;35.50;44.40;;;;;;5089387;28;20080;-81
2022/08/13 10:28:27;;;;;;;6.88;5.35;;;35.40;44.90;;;;;;5073072;28;20103;-78
2022/08/13 10:31:08;;;;;;;6.63;5.28;;;35.20;44.60;;;;;;5074403;28;20446;-77
2022/08/13 10:33:34;;;;;;;7.10;4.97;;;34.80;44.70;;;;;;5074759;28;20102;-77
2022/08/13 10:36:00;;;;;;;6.75;5.10;;;34.50;45.00;;;;;;5081339;28;20024;-78
2022/08/13 10:38:26;;;;;;;10.20;5.07;;;34.40;45.40;;;;;;5097933;28;20058;-76
2022/08/13 10:40:58;;;;;;;6.30;4.90;;;34.50;44.90;;;;;;5082664;28;20017;-77
2022/08/13 10:43:26;;;;;;;62.22;7.65;;;34.60;44.50;;;;;;5088591;28;20024;-76
2022/08/13 10:46:02;;;;;;;7.60;5.32;;;34.70;45.20;;;;;;5057122;28;21918;-77
2022/08/13 10:48:28;;;;;;;5.97;4.70;;;34.80;45.10;;;;;;5058291;28;20033;-77
2022/08/13 10:50:55;;;;;;;6.15;4.68;;;35.00;46.20;;;;;;5074582;28;20028;-77
2022/08/13 10:56:08;;;;;;;11.23;4.78;;;35.20;44.40;;;;;;5097831;28;20046;-77
2022/08/13 10:58:35;;;;;;;8.73;5.30;;;35.20;44.60;;;;;;5113575;28;20031;-79
2022/08/13 11:01:02;;;;;;;6.90;4.72;;;35.20;43.90;;;;;;5112357;27;20024;-77
2022/08/13 11:03:32;;;;;;;6.65;4.93;;;35.00;44.10;;;;;;5103028;28;20080;-78
2022/08/13 11:06:04;;;;;;;6.18;4.97;;;35.30;44.90;;;;;;5095566;28;20059;-78
2022/08/13 11:08:37;;;;;;;7.07;4.90;;;35.20;43.80;;;;;;5112979;28;20028;-78
2022/08/13 11:11:03;;;;;;;7.28;5.13;;;35.20;44.20;;;;;;5106832;28;20474;-76
2022/08/13 11:13:31;;;;;;;6.63;5.20;;;35.10;44.00;;;;;;5095567;28;20024;-82
2022/08/13 11:15:58;;;;;;;7.03;5.38;;;35.20;44.20;;;;;;5087388;28;20076;-78
2022/08/13 11:18:24;;;;;;;6.72;4.70;;;35.10;44.50;;;;;;5113756;27;20117;-76
2022/08/13 11:21:02;;;;;;;8.05;4.70;;;35.20;44.20;;;;;;5102418;28;20032;-79
2022/08/13 11:23:30;;;;;;;9.50;5.10;;;35.30;44.00;;;;;;5117850;27;20027;-77
2022/08/13 11:25:56;;;;;;;6.25;5.00;;;35.30;44.30;;;;;;5092029;28;20020;-77
2022/08/13 11:28:22;;;;;;;5.82;4.75;;;35.40;44.60;;;;;;5095039;28;20076;-76
2022/08/13 11:30:49;;;;;;;6.07;4.95;;;35.60;44.60;;;;;;5098302;27;20128;-78
2022/08/13 11:33:15;;;;;;;5.70;4.65;;;35.40;44.00;;;;;;5095684;28;20032;-78
2022/08/13 11:35:43;;;;;;;6.45;5.00;;;35.00;43.90;;;;;;5092213;28;20078;-79
2022/08/13 11:38:12;;;;;;;6.50;5.20;;;35.00;44.50;;;;;;5092110;28;20040;-77
2022/08/13 11:40:43;;;;;;;6.68;5.32;;;34.90;44.30;;;;;;5092730;28;20065;-78
2022/08/13 11:43:09;;;;;;;7.20;5.18;;;34.90;44.60;;;;;;5093819;28;20378;-77
2022/08/13 11:45:35;;;;;;;5.90;5.00;;;35.00;44.30;;;;;;5108774;28;20481;-79
2022/08/13 11:48:01;;;;;;;6.85;4.85;;;35.00;43.70;;;;;;5094171;28;20028;-76
2022/08/13 11:50:26;;;;;;;8.13;5.00;;;34.50;44.40;;;;;;5113104;28;20027;-77
2022/08/13 11:52:52;;;;;;;5.88;5.00;;;34.40;44.70;;;;;;5083314;28;20136;-78
2022/08/13 11:55:18;;;;;;;5.57;4.70;;;34.40;43.60;;;;;;5102619;28;20052;-76
2022/08/13 11:57:43;;;;;;;6.25;4.70;;;34.40;43.90;;;;;;5111178;28;20511;-76
2022/08/13 12:00:09;;;;;;;6.43;4.55;;;34.60;44.40;;;;;;5121506;27;20015;-78
2022/08/13 12:02:35;;;;;;;6.18;4.80;;;34.70;44.30;;;;;;5109537;27;20067;-76
2022/08/13 12:05:01;;;;;;;6.43;4.75;;;34.80;44.80;;;;;;5093374;28;20433;-76
2022/08/13 12:07:27;;;;;;;6.63;4.70;;;34.80;43.40;;;;;;5107690;27;20019;-77
2022/08/13 12:09:53;;;;;;;7.50;4.55;;;34.90;43.20;;;;;;5111366;28;20027;-76
2022/08/13 12:12:21;;;;;;;6.13;4.85;;;35.00;43.60;;;;;;5094203;28;20036;-81
2022/08/13 12:14:48;;;;;;;5.82;4.60;;;35.00;43.90;;;;;;5093593;28;20024;-80
2022/08/13 12:17:16;;;;;;;7.03;4.70;;;34.70;44.10;;;;;;5110476;28;20064;-83
2022/08/13 12:19:41;;;;;;;10.55;5.20;;;34.30;44.30;;;;;;5103533;28;20050;-78
2022/08/13 12:22:07;;;;;;;6.25;5.10;;;34.10;44.30;;;;;;5113921;28;20416;-76
2022/08/13 12:24:33;;;;;;;7.57;4.60;;;34.30;44.20;;;;;;5113321;28;20020;-78
2022/08/13 12:26:59;;;;;;;12.10;5.30;;;34.50;44.00;;;;;;5113279;28;20077;-77
2022/08/13 12:29:25;;;;;;;9.40;4.80;;;34.50;44.10;;;;;;5113032;28;20012;-77
2022/08/13 12:31:50;;;;;;;8.35;4.60;;;34.70;44.10;;;;;;5113621;28;20055;-83
2022/08/13 12:34:16;;;;;;;7.80;4.63;;;35.00;43.90;;;;;;5095481;28;20073;-76
2022/08/13 12:36:42;;;;;;;6.93;4.43;;;35.10;43.70;;;;;;5114759;28;20078;-77
2022/08/13 12:39:08;;;;;;;6.85;4.60;;;35.20;43.70;;;;;;5115019;28;20461;-76
2022/08/13 12:41:33;;;;;;;8.85;5.00;;;35.10;43.70;;;;;;5115189;28;20500;-79
2022/08/13 12:43:59;;;;;;;11.05;5.00;;;35.00;43.60;;;;;;5115088;28;20101;-77
2022/08/13 12:46:25;;;;;;;8.73;5.00;;;35.00;44.20;;;;;;5115042;28;20477;-77
2022/08/13 12:48:50;;;;;;;9.80;5.13;;;34.90;43.70;;;;;;4759779;28;9999688;-77
2022/08/13 12:51:16;;;;;;;7.07;5.45;;;35.10;44.60;;;;;;5092861;28;20023;-77
2022/08/13 12:53:42;;;;;;;8.07;5.20;;;35.10;44.80;;;;;;5111482;28;20653;-79
2022/08/13 12:56:07;;;;;;;6.03;4.80;;;35.20;44.60;;;;;;5111169;28;20397;-78
2022/08/13 12:58:33;;;;;;;10.63;5.28;;;35.10;44.90;;;;;;5110777;28;20027;-81
2022/08/13 13:00:59;;;;;;;9.32;5.53;;;35.20;45.40;;;;;;5111663;28;20110;-78
2022/08/13 13:03:29;;;;;;;8.07;4.93;;;35.10;45.50;;;;;;5111113;28;20122;-77
2022/08/13 13:05:55;;;;;;;9.20;5.47;;;35.20;45.20;;;;;;5111945;28;20476;-78
2022/08/13 13:08:30;;;;;;;8.25;4.82;;;35.10;44.60;;;;;;5111331;28;20040;-78
2022/08/13 13:11:02;;;;;;;9.95;4.82;;;35.10;44.50;;;;;;5111902;28;20103;-77
2022/08/13 13:13:28;;;;;;;12.07;5.30;;;35.10;44.60;;;;;;5110839;28;20035;-78